sensor_id;sensor_type;location;lat;lon;timestamp;P1;durP1;ratioP1;P2;durP2;ratioP2
27684;SDS011;46113;50.130;8.526;2023-11-21T05:22:40;0.70;;;0.63;;
27684;SDS011;46113;50.130;8.526;2023-11-21T05:30:16;0.57;;;0.47;;
27684;SDS011;46113;50.130;8.526;2023-11-21T05:32:50;1.02;;;0.50;;
27684;SDS011;46113;50.130;8.526;2023-11-21T05:35:20;1.55;;;0.55;;
27684;SDS011;46113;50.130;8.526;2023-11-21T05:41:16;0.45;;;0.32;;
27684;SDS011;46113;50.130;8.526;2023-11-21T05:43:52;0.88;;;0.60;;
27684;SDS011;46113;50.130;8.526;2023-11-21T05:46:24;0.85;;;0.60;;
27684;SDS011;46113;50.130;8.526;2023-11-21T05:48:51;0.30;;;0.22;;
27684;SDS011;46113;50.130;8.526;2023-11-21T05:51:18;5.18;;;0.30;;
27684;SDS011;46113;50.130;8.526;2023-11-21T05:53:45;0.32;;;0.32;;
27684;SDS011;46113;50.130;8.526;2023-11-21T05:56:12;2.47;;;0.35;;
27684;SDS011;46113;50.130;8.526;2023-11-21T05:58:41;0.30;;;0.30;;
27684;SDS011;46113;50.130;8.526;2023-11-21T06:01:16;0.28;;;0.28;;
27684;SDS011;46113;50.130;8.526;2023-11-21T06:03:43;0.22;;;0.22;;
27684;SDS011;46113;50.130;8.526;2023-11-21T06:06:09;0.20;;;0.20;;
27684;SDS011;46113;50.130;8.526;2023-11-21T06:08:36;0.40;;;0.40;;
27684;SDS011;46113;50.130;8.526;2023-11-21T06:11:03;0.93;;;0.65;;
27684;SDS011;46113;50.130;8.526;2023-11-21T06:13:29;1.45;;;1.15;;
27684;SDS011;46113;50.130;8.526;2023-11-21T06:15:57;1.25;;;1.08;;
27684;SDS011;46113;50.130;8.526;2023-11-21T06:18:23;2.45;;;1.30;;
27684;SDS011;46113;50.130;8.526;2023-11-21T06:20:50;2.35;;;1.77;;
27684;SDS011;46113;50.130;8.526;2023-11-21T06:23:22;3.20;;;1.52;;
27684;SDS011;46113;50.130;8.526;2023-11-21T06:35:54;2.45;;;1.98;;
27684;SDS011;46113;50.130;8.526;2023-11-21T06:38:21;5.00;;;2.40;;
27684;SDS011;46113;50.130;8.526;2023-11-21T06:40:47;3.22;;;2.83;;
27684;SDS011;46113;50.130;8.526;2023-11-21T06:43:14;3.35;;;2.70;;
27684;SDS011;46113;50.130;8.526;2023-11-21T06:45:41;2.80;;;2.33;;
27684;SDS011;46113;50.130;8.526;2023-11-21T06:48:08;3.42;;;2.40;;
27684;SDS011;46113;50.130;8.526;2023-11-21T06:50:35;6.47;;;2.95;;
27684;SDS011;46113;50.130;8.526;2023-11-21T06:53:01;5.13;;;2.90;;
27684;SDS011;46113;50.130;8.526;2023-11-21T06:55:30;7.28;;;4.05;;
27684;SDS011;46113;50.130;8.526;2023-11-21T06:57:57;5.15;;;3.72;;
27684;SDS011;46113;50.130;8.526;2023-11-21T07:00:24;4.80;;;3.42;;
27684;SDS011;46113;50.130;8.526;2023-11-21T07:02:51;5.93;;;4.00;;
27684;SDS011;46113;50.130;8.526;2023-11-21T07:05:18;5.90;;;3.05;;
27684;SDS011;46113;50.130;8.526;2023-11-21T07:07:48;4.93;;;3.72;;
27684;SDS011;46113;50.130;8.526;2023-11-21T07:10:16;5.95;;;3.10;;
27684;SDS011;46113;50.130;8.526;2023-11-21T07:12:43;4.80;;;2.83;;
27684;SDS011;46113;50.130;8.526;2023-11-21T07:15:10;2.83;;;2.53;;
27684;SDS011;46113;50.130;8.526;2023-11-21T07:17:36;5.93;;;3.40;;
27684;SDS011;46113;50.130;8.526;2023-11-21T07:20:07;6.32;;;3.70;;
27684;SDS011;46113;50.130;8.526;2023-11-21T07:22:34;6.07;;;3.50;;
27684;SDS011;46113;50.130;8.526;2023-11-21T07:25:01;3.90;;;2.47;;
27684;SDS011;46113;50.130;8.526;2023-11-21T07:27:28;5.80;;;2.47;;
27684;SDS011;46113;50.130;8.526;2023-11-21T07:29:55;4.53;;;2.90;;
27684;SDS011;46113;50.130;8.526;2023-11-21T07:32:21;4.53;;;2.08;;
27684;SDS011;46113;50.130;8.526;2023-11-21T07:34:48;4.32;;;3.15;;
27684;SDS011;46113;50.130;8.526;2023-11-21T07:37:15;3.85;;;2.38;;
27684;SDS011;46113;50.130;8.526;2023-11-21T07:39:41;2.00;;;1.58;;
27684;SDS011;46113;50.130;8.526;2023-11-21T07:42:09;4.30;;;2.92;;
27684;SDS011;46113;50.130;8.526;2023-11-21T07:44:37;3.28;;;2.40;;
27684;SDS011;46113;50.130;8.526;2023-11-21T07:47:03;6.18;;;3.65;;
27684;SDS011;46113;50.130;8.526;2023-11-21T07:49:31;2.20;;;1.90;;
27684;SDS011;46113;50.130;8.526;2023-11-21T07:51:57;2.85;;;2.08;;
27684;SDS011;46113;50.130;8.526;2023-11-21T07:54:24;3.85;;;2.78;;
27684;SDS011;46113;50.130;8.526;2023-11-21T07:56:51;4.63;;;2.75;;
27684;SDS011;46113;50.130;8.526;2023-11-21T07:59:17;9.85;;;4.47;;
27684;SDS011;46113;50.130;8.526;2023-11-21T08:01:44;6.20;;;3.28;;
27684;SDS011;46113;50.130;8.526;2023-11-21T08:04:12;6.45;;;2.90;;
27684;SDS011;46113;50.130;8.526;2023-11-21T08:06:39;2.30;;;2.10;;
27684;SDS011;46113;50.130;8.526;2023-11-21T08:09:08;6.65;;;4.55;;
27684;SDS011;46113;50.130;8.526;2023-11-21T08:11:34;4.03;;;3.47;;
27684;SDS011;46113;50.130;8.526;2023-11-21T08:14:01;4.40;;;2.35;;
27684;SDS011;46113;50.130;8.526;2023-11-21T08:16:28;3.30;;;1.92;;
27684;SDS011;46113;50.130;8.526;2023-11-21T08:18:55;4.20;;;1.92;;
27684;SDS011;46113;50.130;8.526;2023-11-21T08:21:22;2.33;;;1.75;;
27684;SDS011;46113;50.130;8.526;2023-11-21T08:23:55;9.00;;;3.03;;
27684;SDS011;46113;50.130;8.526;2023-11-21T08:26:21;6.25;;;2.50;;
27684;SDS011;46113;50.130;8.526;2023-11-21T08:28:49;3.55;;;2.70;;
27684;SDS011;46113;50.130;8.526;2023-11-21T08:31:23;4.88;;;3.50;;
27684;SDS011;46113;50.130;8.526;2023-11-21T08:33:51;4.50;;;2.77;;
27684;SDS011;46113;50.130;8.526;2023-11-21T08:36:22;4.03;;;2.70;;
27684;SDS011;46113;50.130;8.526;2023-11-21T08:38:52;4.47;;;2.40;;
27684;SDS011;46113;50.130;8.526;2023-11-21T08:41:18;8.85;;;2.42;;
27684;SDS011;46113;50.130;8.526;2023-11-21T08:43:47;3.28;;;2.25;;
27684;SDS011;46113;50.130;8.526;2023-11-21T08:46:16;5.25;;;2.60;;
27684;SDS011;46113;50.130;8.526;2023-11-21T08:48:44;3.65;;;2.47;;
27684;SDS011;46113;50.130;8.526;2023-11-21T08:51:12;2.60;;;2.30;;
27684;SDS011;46113;50.130;8.526;2023-11-21T08:53:40;2.65;;;2.15;;
27684;SDS011;46113;50.130;8.526;2023-11-21T08:56:07;3.33;;;1.75;;
27684;SDS011;46113;50.130;8.526;2023-11-21T08:58:35;4.95;;;2.65;;
27684;SDS011;46113;50.130;8.526;2023-11-21T09:01:04;4.05;;;1.83;;
27684;SDS011;46113;50.130;8.526;2023-11-21T09:03:31;3.78;;;2.03;;
27684;SDS011;46113;50.130;8.526;2023-11-21T09:06:00;4.40;;;2.35;;
27684;SDS011;46113;50.130;8.526;2023-11-21T09:08:27;4.72;;;2.30;;
27684;SDS011;46113;50.130;8.526;2023-11-21T09:10:55;3.60;;;1.83;;
27684;SDS011;46113;50.130;8.526;2023-11-21T09:13:22;3.33;;;2.45;;
27684;SDS011;46113;50.130;8.526;2023-11-21T09:15:51;1.73;;;1.38;;
27684;SDS011;46113;50.130;8.526;2023-11-21T09:18:18;3.30;;;2.00;;
27684;SDS011;46113;50.130;8.526;2023-11-21T09:20:45;3.90;;;2.30;;
27684;SDS011;46113;50.130;8.526;2023-11-21T09:23:12;6.78;;;2.58;;
27684;SDS011;46113;50.130;8.526;2023-11-21T09:25:38;2.00;;;1.80;;
27684;SDS011;46113;50.130;8.526;2023-11-21T09:28:05;5.85;;;2.17;;
27684;SDS011;46113;50.130;8.526;2023-11-21T09:30:35;5.45;;;2.28;;
27684;SDS011;46113;50.130;8.526;2023-11-21T09:33:04;3.78;;;2.17;;
27684;SDS011;46113;50.130;8.526;2023-11-21T09:35:37;6.30;;;2.30;;
27684;SDS011;46113;50.130;8.526;2023-11-21T09:38:04;4.18;;;2.28;;
27684;SDS011;46113;50.130;8.526;2023-11-21T09:40:37;11.20;;;2.30;;
27684;SDS011;46113;50.130;8.526;2023-11-21T09:43:15;3.28;;;2.20;;
27684;SDS011;46113;50.130;8.526;2023-11-21T09:45:47;2.25;;;1.88;;
27684;SDS011;46113;50.130;8.526;2023-11-21T09:48:19;3.33;;;1.85;;
27684;SDS011;46113;50.130;8.526;2023-11-21T09:50:47;6.57;;;2.33;;
27684;SDS011;46113;50.130;8.526;2023-11-21T09:53:17;4.50;;;2.42;;
27684;SDS011;46113;50.130;8.526;2023-11-21T09:55:48;3.33;;;2.03;;
27684;SDS011;46113;50.130;8.526;2023-11-21T09:58:18;4.75;;;1.60;;
27684;SDS011;46113;50.130;8.526;2023-11-21T10:00:46;3.53;;;1.42;;
27684;SDS011;46113;50.130;8.526;2023-11-21T10:03:14;2.85;;;1.75;;
27684;SDS011;46113;50.130;8.526;2023-11-21T10:05:42;7.85;;;2.50;;
27684;SDS011;46113;50.130;8.526;2023-11-21T10:08:11;1.92;;;1.63;;
27684;SDS011;46113;50.130;8.526;2023-11-21T10:10:46;4.95;;;1.92;;
27684;SDS011;46113;50.130;8.526;2023-11-21T10:13:15;2.60;;;1.67;;
27684;SDS011;46113;50.130;8.526;2023-11-21T10:15:49;3.50;;;1.95;;
27684;SDS011;46113;50.130;8.526;2023-11-21T10:18:17;4.00;;;1.80;;
27684;SDS011;46113;50.130;8.526;2023-11-21T10:20:44;3.35;;;1.95;;
27684;SDS011;46113;50.130;8.526;2023-11-21T10:23:19;4.80;;;1.90;;
27684;SDS011;46113;50.130;8.526;2023-11-21T10:25:48;2.88;;;1.65;;
27684;SDS011;46113;50.130;8.526;2023-11-21T10:28:18;2.80;;;1.77;;
27684;SDS011;46113;50.130;8.526;2023-11-21T10:30:45;1.40;;;1.30;;
27684;SDS011;46113;50.130;8.526;2023-11-21T10:33:12;5.55;;;1.65;;
27684;SDS011;46113;50.130;8.526;2023-11-21T10:35:45;3.95;;;1.52;;
27684;SDS011;46113;50.130;8.526;2023-11-21T10:38:13;2.30;;;1.50;;
27684;SDS011;46113;50.130;8.526;2023-11-21T10:40:41;2.75;;;1.25;;
27684;SDS011;46113;50.130;8.526;2023-11-21T10:43:09;3.92;;;1.63;;
27684;SDS011;46113;50.130;8.526;2023-11-21T10:45:36;1.90;;;1.60;;
27684;SDS011;46113;50.130;8.526;2023-11-21T10:48:07;6.05;;;2.25;;
27684;SDS011;46113;50.130;8.526;2023-11-21T10:50:35;5.22;;;1.77;;
27684;SDS011;46113;50.130;8.526;2023-11-21T10:53:05;4.18;;;1.90;;
27684;SDS011;46113;50.130;8.526;2023-11-21T10:55:32;4.32;;;2.10;;
27684;SDS011;46113;50.130;8.526;2023-11-21T10:58:02;4.13;;;2.03;;
27684;SDS011;46113;50.130;8.526;2023-11-21T11:00:31;1.55;;;1.40;;
27684;SDS011;46113;50.130;8.526;2023-11-21T11:02:59;3.90;;;1.13;;
27684;SDS011;46113;50.130;8.526;2023-11-21T11:05:27;5.55;;;2.35;;
27684;SDS011;46113;50.130;8.526;2023-11-21T11:10:26;3.45;;;1.60;;
27684;SDS011;46113;50.130;8.526;2023-11-21T11:12:56;7.78;;;1.75;;
27684;SDS011;46113;50.130;8.526;2023-11-21T11:15:24;2.97;;;1.85;;
27684;SDS011;46113;50.130;8.526;2023-11-21T11:17:52;2.58;;;1.63;;
27684;SDS011;46113;50.130;8.526;2023-11-21T11:20:25;2.60;;;1.20;;
27684;SDS011;46113;50.130;8.526;2023-11-21T11:29:18;4.70;;;1.40;;
27684;SDS011;46113;50.130;8.526;2023-11-21T11:37:56;3.22;;;1.05;;
27684;SDS011;46113;50.130;8.526;2023-11-21T11:40:25;2.58;;;1.40;;
27684;SDS011;46113;50.130;8.526;2023-11-21T11:43:06;3.65;;;1.42;;
27684;SDS011;46113;50.130;8.526;2023-11-21T11:45:34;2.88;;;1.25;;
27684;SDS011;46113;50.130;8.526;2023-11-21T11:48:02;8.77;;;1.55;;
27684;SDS011;46113;50.130;8.526;2023-11-21T11:50:30;1.90;;;1.15;;
27684;SDS011;46113;50.130;8.526;2023-11-21T11:53:11;2.90;;;1.35;;
27684;SDS011;46113;50.130;8.526;2023-11-21T11:55:39;2.90;;;1.20;;
27684;SDS011;46113;50.130;8.526;2023-11-21T11:58:07;3.42;;;1.45;;
27684;SDS011;46113;50.130;8.526;2023-11-21T12:00:36;3.08;;;1.08;;
27684;SDS011;46113;50.130;8.526;2023-11-21T12:03:05;5.40;;;1.73;;
27684;SDS011;46113;50.130;8.526;2023-11-21T12:05:34;4.68;;;1.38;;
27684;SDS011;46113;50.130;8.526;2023-11-21T12:08:06;1.75;;;1.33;;
27684;SDS011;46113;50.130;8.526;2023-11-21T12:10:39;4.63;;;1.38;;
27684;SDS011;46113;50.130;8.526;2023-11-21T12:13:14;3.13;;;1.13;;
27684;SDS011;46113;50.130;8.526;2023-11-21T12:15:42;6.57;;;2.03;;
27684;SDS011;46113;50.130;8.526;2023-11-21T12:18:10;2.65;;;1.50;;
27684;SDS011;46113;50.130;8.526;2023-11-21T12:20:37;3.67;;;1.83;;
27684;SDS011;46113;50.130;8.526;2023-11-21T12:23:09;5.25;;;1.38;;
27684;SDS011;46113;50.130;8.526;2023-11-21T12:25:43;2.10;;;1.60;;
27684;SDS011;46113;50.130;8.526;2023-11-21T12:28:10;4.35;;;2.08;;
27684;SDS011;46113;50.130;8.526;2023-11-21T12:30:39;5.38;;;1.73;;
27684;SDS011;46113;50.130;8.526;2023-11-21T12:33:07;4.07;;;1.50;;
27684;SDS011;46113;50.130;8.526;2023-11-21T12:35:36;3.65;;;1.75;;
27684;SDS011;46113;50.130;8.526;2023-11-21T12:38:08;5.95;;;1.65;;
27684;SDS011;46113;50.130;8.526;2023-11-21T12:40:36;9.52;;;1.77;;
27684;SDS011;46113;50.130;8.526;2023-11-21T12:43:03;3.70;;;2.53;;
27684;SDS011;46113;50.130;8.526;2023-11-21T12:45:36;5.43;;;1.80;;
27684;SDS011;46113;50.130;8.526;2023-11-21T12:48:05;5.22;;;1.50;;
27684;SDS011;46113;50.130;8.526;2023-11-21T12:50:38;5.03;;;1.97;;
27684;SDS011;46113;50.130;8.526;2023-11-21T12:53:10;14.73;;;3.47;;
27684;SDS011;46113;50.130;8.526;2023-11-21T12:55:43;8.70;;;3.00;;
27684;SDS011;46113;50.130;8.526;2023-11-21T13:00:47;3.63;;;2.25;;
27684;SDS011;46113;50.130;8.526;2023-11-21T13:03:18;4.53;;;1.92;;
27684;SDS011;46113;50.130;8.526;2023-11-21T13:05:53;3.45;;;1.75;;
27684;SDS011;46113;50.130;8.526;2023-11-21T13:12:10;8.45;;;2.00;;
27684;SDS011;46113;50.130;8.526;2023-11-21T13:14:45;9.63;;;2.42;;
27684;SDS011;46113;50.130;8.526;2023-11-21T13:17:14;9.02;;;2.05;;
27684;SDS011;46113;50.130;8.526;2023-11-21T13:19:50;5.82;;;2.10;;
27684;SDS011;46113;50.130;8.526;2023-11-21T13:22:27;7.60;;;2.33;;
27684;SDS011;46113;50.130;8.526;2023-11-21T13:24:58;5.35;;;2.03;;
27684;SDS011;46113;50.130;8.526;2023-11-21T13:27:44;9.25;;;2.85;;
27684;SDS011;46113;50.130;8.526;2023-11-21T13:33:20;10.63;;;4.15;;
27684;SDS011;46113;50.130;8.526;2023-11-21T13:36:01;22.52;;;7.10;;
27684;SDS011;46113;50.130;8.526;2023-11-21T13:38:28;4.82;;;2.67;;
27684;SDS011;46113;50.130;8.526;2023-11-21T13:40:59;40.25;;;15.05;;
27684;SDS011;46113;50.130;8.526;2023-11-21T13:43:26;18.58;;;7.05;;
27684;SDS011;46113;50.130;8.526;2023-11-21T13:45:55;15.35;;;5.25;;
27684;SDS011;46113;50.130;8.526;2023-11-21T13:48:27;13.15;;;4.32;;
27684;SDS011;46113;50.130;8.526;2023-11-21T13:51:00;9.38;;;2.45;;
27684;SDS011;46113;50.130;8.526;2023-11-21T13:53:36;9.18;;;2.75;;
27684;SDS011;46113;50.130;8.526;2023-11-21T13:56:05;14.18;;;2.88;;
27684;SDS011;46113;50.130;8.526;2023-11-21T13:58:32;8.15;;;1.92;;
27684;SDS011;46113;50.130;8.526;2023-11-21T14:01:25;8.35;;;2.47;;
27684;SDS011;46113;50.130;8.526;2023-11-21T14:06:29;7.22;;;2.35;;
27684;SDS011;46113;50.130;8.526;2023-11-21T14:09:02;4.45;;;1.88;;
27684;SDS011;46113;50.130;8.526;2023-11-21T14:11:32;7.97;;;2.33;;
27684;SDS011;46113;50.130;8.526;2023-11-21T14:14:11;4.78;;;2.33;;
27684;SDS011;46113;50.130;8.526;2023-11-21T14:16:38;6.28;;;2.67;;
27684;SDS011;46113;50.130;8.526;2023-11-21T14:19:05;4.13;;;2.35;;
27684;SDS011;46113;50.130;8.526;2023-11-21T14:33:44;4.63;;;2.47;;
27684;SDS011;46113;50.130;8.526;2023-11-21T14:36:13;5.32;;;2.00;;
27684;SDS011;46113;50.130;8.526;2023-11-21T15:01:30;5.55;;;2.22;;
27684;SDS011;46113;50.130;8.526;2023-11-21T15:04:20;7.38;;;3.05;;
27684;SDS011;46113;50.130;8.526;2023-11-21T15:07:16;5.30;;;2.70;;
27684;SDS011;46113;50.130;8.526;2023-11-21T15:09:44;4.05;;;2.50;;
27684;SDS011;46113;50.130;8.526;2023-11-21T15:12:12;11.77;;;3.75;;
27684;SDS011;46113;50.130;8.526;2023-11-21T15:14:43;8.45;;;5.15;;
27684;SDS011;46113;50.130;8.526;2023-11-21T15:17:12;11.27;;;5.07;;
27684;SDS011;46113;50.130;8.526;2023-11-21T15:19:57;11.27;;;4.10;;
27684;SDS011;46113;50.130;8.526;2023-11-21T15:22:27;7.15;;;3.75;;
27684;SDS011;46113;50.130;8.526;2023-11-21T15:24:55;8.32;;;3.38;;
27684;SDS011;46113;50.130;8.526;2023-11-21T15:27:24;9.23;;;4.40;;
27684;SDS011;46113;50.130;8.526;2023-11-21T15:29:54;3.78;;;3.13;;
27684;SDS011;46113;50.130;8.526;2023-11-21T15:32:23;3.78;;;2.72;;
27684;SDS011;46113;50.130;8.526;2023-11-21T15:34:51;6.20;;;3.78;;
27684;SDS011;46113;50.130;8.526;2023-11-21T15:37:20;6.32;;;2.95;;
27684;SDS011;46113;50.130;8.526;2023-11-21T15:39:51;5.68;;;3.28;;
27684;SDS011;46113;50.130;8.526;2023-11-21T15:42:19;8.25;;;4.82;;
27684;SDS011;46113;50.130;8.526;2023-11-21T15:44:47;16.95;;;4.57;;
27684;SDS011;46113;50.130;8.526;2023-11-21T15:47:14;6.47;;;3.33;;
27684;SDS011;46113;50.130;8.526;2023-11-21T15:49:42;9.80;;;3.85;;
27684;SDS011;46113;50.130;8.526;2023-11-21T15:52:10;9.52;;;3.53;;
27684;SDS011;46113;50.130;8.526;2023-11-21T15:54:40;6.68;;;3.55;;
27684;SDS011;46113;50.130;8.526;2023-11-21T15:57:07;8.52;;;3.92;;
27684;SDS011;46113;50.130;8.526;2023-11-21T15:59:39;10.30;;;4.13;;
27684;SDS011;46113;50.130;8.526;2023-11-21T16:02:12;9.77;;;3.47;;
27684;SDS011;46113;50.130;8.526;2023-11-21T16:04:44;11.55;;;5.85;;
27684;SDS011;46113;50.130;8.526;2023-11-21T16:07:13;9.13;;;6.38;;
27684;SDS011;46113;50.130;8.526;2023-11-21T16:09:41;7.35;;;4.05;;
27684;SDS011;46113;50.130;8.526;2023-11-21T16:12:10;5.85;;;3.70;;
27684;SDS011;46113;50.130;8.526;2023-11-21T16:14:39;5.30;;;3.35;;
27684;SDS011;46113;50.130;8.526;2023-11-21T16:17:12;6.20;;;3.05;;
27684;SDS011;46113;50.130;8.526;2023-11-21T16:19:41;9.80;;;3.45;;
27684;SDS011;46113;50.130;8.526;2023-11-21T16:22:10;7.80;;;3.85;;
27684;SDS011;46113;50.130;8.526;2023-11-21T16:24:38;8.77;;;3.70;;
27684;SDS011;46113;50.130;8.526;2023-11-21T16:27:06;7.85;;;3.83;;
27684;SDS011;46113;50.130;8.526;2023-11-21T16:29:39;9.60;;;4.28;;
27684;SDS011;46113;50.130;8.526;2023-11-21T16:32:08;8.63;;;4.03;;
27684;SDS011;46113;50.130;8.526;2023-11-21T16:34:37;9.98;;;4.25;;
27684;SDS011;46113;50.130;8.526;2023-11-21T16:37:07;13.48;;;4.93;;
27684;SDS011;46113;50.130;8.526;2023-11-21T16:39:38;11.35;;;4.70;;
27684;SDS011;46113;50.130;8.526;2023-11-21T16:42:09;9.20;;;4.72;;
27684;SDS011;46113;50.130;8.526;2023-11-21T16:44:37;9.65;;;5.43;;
27684;SDS011;46113;50.130;8.526;2023-11-21T16:47:05;9.23;;;5.35;;
27684;SDS011;46113;50.130;8.526;2023-11-21T16:49:33;6.70;;;4.88;;
27684;SDS011;46113;50.130;8.526;2023-11-21T16:52:02;7.65;;;4.53;;
27684;SDS011;46113;50.130;8.526;2023-11-21T16:54:31;9.38;;;4.25;;
27684;SDS011;46113;50.130;8.526;2023-11-21T16:57:00;9.70;;;5.05;;
27684;SDS011;46113;50.130;8.526;2023-11-21T16:59:27;13.48;;;7.10;;
27684;SDS011;46113;50.130;8.526;2023-11-21T17:01:55;18.17;;;9.50;;
27684;SDS011;46113;50.130;8.526;2023-11-21T17:04:23;16.55;;;9.25;;
27684;SDS011;46113;50.130;8.526;2023-11-21T17:06:51;13.75;;;7.28;;
27684;SDS011;46113;50.130;8.526;2023-11-21T17:09:19;11.07;;;5.80;;
27684;SDS011;46113;50.130;8.526;2023-11-21T17:11:47;10.57;;;5.53;;
27684;SDS011;46113;50.130;8.526;2023-11-21T17:14:15;9.90;;;5.57;;
27684;SDS011;46113;50.130;8.526;2023-11-21T17:16:42;9.70;;;5.47;;
27684;SDS011;46113;50.130;8.526;2023-11-21T17:19:10;18.75;;;5.63;;
27684;SDS011;46113;50.130;8.526;2023-11-21T17:21:37;8.88;;;5.20;;
27684;SDS011;46113;50.130;8.526;2023-11-21T17:24:04;8.90;;;5.90;;
27684;SDS011;46113;50.130;8.526;2023-11-21T17:26:31;7.95;;;5.30;;
27684;SDS011;46113;50.130;8.526;2023-11-21T17:28:57;8.50;;;4.82;;
27684;SDS011;46113;50.130;8.526;2023-11-21T17:31:24;9.70;;;4.47;;
27684;SDS011;46113;50.130;8.526;2023-11-21T17:33:51;5.90;;;4.28;;
27684;SDS011;46113;50.130;8.526;2023-11-21T17:36:20;6.28;;;4.20;;
27684;SDS011;46113;50.130;8.526;2023-11-21T17:38:47;7.07;;;4.32;;
27684;SDS011;46113;50.130;8.526;2023-11-21T17:41:18;7.95;;;4.18;;
27684;SDS011;46113;50.130;8.526;2023-11-21T17:43:50;5.43;;;3.97;;
27684;SDS011;46113;50.130;8.526;2023-11-21T17:46:23;6.82;;;4.40;;
27684;SDS011;46113;50.130;8.526;2023-11-21T17:48:50;7.20;;;4.00;;
27684;SDS011;46113;50.130;8.526;2023-11-21T17:51:19;8.10;;;4.25;;
27684;SDS011;46113;50.130;8.526;2023-11-21T17:53:49;8.23;;;3.53;;
27684;SDS011;46113;50.130;8.526;2023-11-21T17:56:16;8.65;;;3.10;;
27684;SDS011;46113;50.130;8.526;2023-11-21T17:58:45;8.45;;;4.15;;
27684;SDS011;46113;50.130;8.526;2023-11-21T18:01:12;9.77;;;5.25;;
27684;SDS011;46113;50.130;8.526;2023-11-21T18:03:39;5.88;;;4.80;;
27684;SDS011;46113;50.130;8.526;2023-11-21T18:06:07;6.45;;;3.65;;
27684;SDS011;46113;50.130;8.526;2023-11-21T18:08:37;7.60;;;4.00;;
27684;SDS011;46113;50.130;8.526;2023-11-21T18:11:06;6.93;;;3.63;;
27684;SDS011;46113;50.130;8.526;2023-11-21T18:13:32;13.02;;;3.22;;
27684;SDS011;46113;50.130;8.526;2023-11-21T18:15:59;6.78;;;3.45;;
27684;SDS011;46113;50.130;8.526;2023-11-21T18:18:26;7.78;;;4.07;;
27684;SDS011;46113;50.130;8.526;2023-11-21T18:20:53;4.75;;;3.00;;
27684;SDS011;46113;50.130;8.526;2023-11-21T18:23:20;3.80;;;2.67;;
27684;SDS011;46113;50.130;8.526;2023-11-21T18:25:47;2.70;;;1.77;;
27684;SDS011;46113;50.130;8.526;2023-11-21T18:28:13;4.53;;;2.17;;
27684;SDS011;46113;50.130;8.526;2023-11-21T18:30:40;1.63;;;1.23;;
27684;SDS011;46113;50.130;8.526;2023-11-21T18:33:07;3.22;;;2.08;;
27684;SDS011;46113;50.130;8.526;2023-11-21T18:35:34;2.08;;;1.10;;
27684;SDS011;46113;50.130;8.526;2023-11-21T18:38:00;3.67;;;1.65;;
27684;SDS011;46113;50.130;8.526;2023-11-21T18:40:28;1.67;;;1.50;;
27684;SDS011;46113;50.130;8.526;2023-11-21T18:42:55;4.47;;;2.13;;
27684;SDS011;46113;50.130;8.526;2023-11-21T18:45:22;3.63;;;1.90;;
27684;SDS011;46113;50.130;8.526;2023-11-21T18:47:49;0.82;;;0.80;;
27684;SDS011;46113;50.130;8.526;2023-11-21T18:50:15;0.80;;;0.77;;
27684;SDS011;46113;50.130;8.526;2023-11-21T18:52:44;1.55;;;1.13;;
27684;SDS011;46113;50.130;8.526;2023-11-21T18:55:11;2.22;;;1.15;;
27684;SDS011;46113;50.130;8.526;2023-11-21T18:57:38;3.38;;;1.50;;
27684;SDS011;46113;50.130;8.526;2023-11-21T19:00:06;1.15;;;0.93;;
27684;SDS011;46113;50.130;8.526;2023-11-21T19:02:35;0.85;;;0.85;;
27684;SDS011;46113;50.130;8.526;2023-11-21T19:05:02;1.88;;;1.27;;
27684;SDS011;46113;50.130;8.526;2023-11-21T19:07:31;3.50;;;1.35;;
27684;SDS011;46113;50.130;8.526;2023-11-21T19:10:03;4.75;;;2.60;;
27684;SDS011;46113;50.130;8.526;2023-11-21T19:12:36;2.50;;;1.85;;
27684;SDS011;46113;50.130;8.526;2023-11-21T19:15:06;2.22;;;2.03;;
27684;SDS011;46113;50.130;8.526;2023-11-21T19:17:42;3.20;;;2.15;;
27684;SDS011;46113;50.130;8.526;2023-11-21T19:20:09;8.43;;;2.60;;
27684;SDS011;46113;50.130;8.526;2023-11-21T19:22:36;4.20;;;2.08;;
27684;SDS011;46113;50.130;8.526;2023-11-21T19:25:04;4.25;;;2.03;;
27684;SDS011;46113;50.130;8.526;2023-11-21T19:27:31;2.63;;;2.30;;
27684;SDS011;46113;50.130;8.526;2023-11-21T19:29:58;2.60;;;2.22;;
27684;SDS011;46113;50.130;8.526;2023-11-21T19:32:24;2.80;;;2.10;;
27684;SDS011;46113;50.130;8.526;2023-11-21T19:34:51;3.15;;;2.08;;
27684;SDS011;46113;50.130;8.526;2023-11-21T19:37:18;5.07;;;2.70;;
27684;SDS011;46113;50.130;8.526;2023-11-21T19:39:44;2.90;;;2.50;;
27684;SDS011;46113;50.130;8.526;2023-11-21T19:42:11;3.03;;;2.17;;
27684;SDS011;46113;50.130;8.526;2023-11-21T19:44:37;3.10;;;1.98;;
27684;SDS011;46113;50.130;8.526;2023-11-21T19:47:05;3.20;;;2.05;;
27684;SDS011;46113;50.130;8.526;2023-11-21T19:49:33;2.53;;;2.10;;
27684;SDS011;46113;50.130;8.526;2023-11-21T19:52:00;4.68;;;1.63;;
27684;SDS011;46113;50.130;8.526;2023-11-21T19:54:27;2.00;;;1.80;;
27684;SDS011;46113;50.130;8.526;2023-11-21T19:56:55;2.40;;;1.50;;
27684;SDS011;46113;50.130;8.526;2023-11-21T19:59:21;2.83;;;2.10;;
27684;SDS011;46113;50.130;8.526;2023-11-21T20:01:50;1.73;;;1.58;;
27684;SDS011;46113;50.130;8.526;2023-11-21T20:04:17;1.95;;;1.48;;
27684;SDS011;46113;50.130;8.526;2023-11-21T20:06:43;1.70;;;1.48;;
27684;SDS011;46113;50.130;8.526;2023-11-21T20:09:22;2.30;;;2.05;;
27684;SDS011;46113;50.130;8.526;2023-11-21T20:11:49;3.88;;;1.92;;
27684;SDS011;46113;50.130;8.526;2023-11-21T20:14:26;2.08;;;1.63;;
27684;SDS011;46113;50.130;8.526;2023-11-21T20:16:55;1.98;;;1.65;;
27684;SDS011;46113;50.130;8.526;2023-11-21T20:19:22;4.75;;;1.80;;
27684;SDS011;46113;50.130;8.526;2023-11-21T20:21:52;2.85;;;1.75;;
27684;SDS011;46113;50.130;8.526;2023-11-21T20:24:19;3.22;;;1.70;;
27684;SDS011;46113;50.130;8.526;2023-11-21T20:26:47;2.63;;;2.22;;
27684;SDS011;46113;50.130;8.526;2023-11-21T20:29:13;3.25;;;2.60;;
27684;SDS011;46113;50.130;8.526;2023-11-21T20:31:40;2.50;;;2.30;;
27684;SDS011;46113;50.130;8.526;2023-11-21T20:34:07;3.47;;;2.42;;
27684;SDS011;46113;50.130;8.526;2023-11-21T20:36:34;6.05;;;2.38;;
27684;SDS011;46113;50.130;8.526;2023-11-21T20:39:01;2.42;;;1.95;;
27684;SDS011;46113;50.130;8.526;2023-11-21T20:41:28;3.80;;;2.65;;
27684;SDS011;46113;50.130;8.526;2023-11-21T20:43:55;2.30;;;2.03;;
27684;SDS011;46113;50.130;8.526;2023-11-21T20:46:22;2.95;;;2.33;;
27684;SDS011;46113;50.130;8.526;2023-11-21T20:48:49;3.50;;;3.03;;
27684;SDS011;46113;50.130;8.526;2023-11-21T20:51:20;3.90;;;2.60;;
27684;SDS011;46113;50.130;8.526;2023-11-21T20:53:48;2.53;;;2.15;;
27684;SDS011;46113;50.130;8.526;2023-11-21T20:56:14;5.45;;;3.15;;
27684;SDS011;46113;50.130;8.526;2023-11-21T20:58:41;6.53;;;4.10;;
27684;SDS011;46113;50.130;8.526;2023-11-21T21:01:09;5.05;;;2.45;;
27684;SDS011;46113;50.130;8.526;2023-11-21T21:03:36;4.63;;;3.05;;
27684;SDS011;46113;50.130;8.526;2023-11-21T21:06:03;3.47;;;2.75;;
27684;SDS011;46113;50.130;8.526;2023-11-21T21:08:30;3.28;;;2.50;;
27684;SDS011;46113;50.130;8.526;2023-11-21T21:10:56;5.45;;;2.90;;
27684;SDS011;46113;50.130;8.526;2023-11-21T21:13:24;3.25;;;2.45;;
27684;SDS011;46113;50.130;8.526;2023-11-21T21:15:51;5.25;;;2.53;;
27684;SDS011;46113;50.130;8.526;2023-11-21T21:18:18;3.00;;;2.08;;
27684;SDS011;46113;50.130;8.526;2023-11-21T21:20:44;10.60;;;4.25;;
27684;SDS011;46113;50.130;8.526;2023-11-21T21:23:11;6.38;;;3.78;;
27684;SDS011;46113;50.130;8.526;2023-11-21T21:25:40;3.20;;;2.47;;
27684;SDS011;46113;50.130;8.526;2023-11-21T21:28:07;9.77;;;2.83;;
27684;SDS011;46113;50.130;8.526;2023-11-21T21:30:34;2.80;;;2.47;;
27684;SDS011;46113;50.130;8.526;2023-11-21T21:33:00;5.95;;;2.88;;
27684;SDS011;46113;50.130;8.526;2023-11-21T21:35:27;3.38;;;2.17;;
27684;SDS011;46113;50.130;8.526;2023-11-21T21:37:55;7.68;;;2.97;;